This is the latest recevied weather packets stored in our database for station/object OE6PWE-13. If no packets are shown the sender has not sent any weather packets the latest 1 day(s).
| Time | Temp. | Humidity | Pressure | Rain* | Wind** | Luminosity | Snow |
|---|---|---|---|---|---|---|---|
| 1778084113 | 18.89° C | 66% | 1007 hPa | 0 mm | - | - | - |
| 1778076914 | 20.56° C | 60% | 1007 hPa | 0 mm | - | - | - |
| 1778076020 | 21.11° C | 58% | 1007 hPa | 0 mm | - | - | - |
| 1778075113 | 21.67° C | 56% | 1007 hPa | 0 mm | - | - | - |
| 1778074221 | 21.67° C | 57% | 1007 hPa | 0 mm | - | - | - |
| 1778070621 | 22.22° C | 53% | 1007 hPa | 0 mm | - | - | - |
| 1778069714 | 21.67° C | 54% | 1008 hPa | 0 mm | - | - | - |
| 1778066113 | 20.56° C | 59% | 1008 hPa | 0 mm | - | - | - |
| 1778063421 | 20° C | 61% | 1009 hPa | 0 mm | - | - | - |
| 1778062513 | 21.67° C | 58% | 1009 hPa | 0 mm | - | - | - |
| 1778059821 | 22.22° C | 48% | 1008 hPa | 0 mm | - | - | - |
| 1778058021 | 21.67° C | 51% | 1008 hPa | 0 mm | - | - | - |
| 1778057114 | 21.11° C | 54% | 1008 hPa | 0 mm | - | - | - |
| 1778056220 | 21.11° C | 55% | 1008 hPa | 0 mm | - | - | - |
| 1778055313 | 20.56° C | 54% | 1008 hPa | 0 mm | - | - | - |
| 1778054422 | 20° C | 61% | 1009 hPa | 0 mm | - | - | - |
| 1778048114 | 10.56° C | 97% | 1010 hPa | 0 mm | - | - | - |
| 1778045420 | 8.33° C | 99% | 1011 hPa | 0 mm | - | - | - |
| 1778042713 | 7.22° C | 99% | 1011 hPa | 0 mm | - | - | - |
| 1778041820 | 7.22° C | 99% | 1011 hPa | 0 mm | - | - | - |
| 1778040913 | 7.22° C | 99% | 1010 hPa | 0 mm | - | - | - |
| 1778040021 | 7.78° C | 99% | 1010 hPa | 0 mm | - | - | - |
| 1778037313 | 8.33° C | 98% | 1010 hPa | 0 mm | - | - | - |
| 1778036421 | 8.33° C | 97% | 1010 hPa | 0 mm | - | - | - |
| 1778035514 | 8.89° C | 97% | 1010 hPa | 0 mm | - | - | - |
* Rain latest hour (hover to see other rain measurements)
** Current wind speed in m/s (hover to see current wind gust speed)